Time;durP1;ratioP1;P1;durP2;ratioP2;P2;SDS_P1;SDS_P2;PMS_P1;PMS_P2;Temp;Humidity;BMP_temperature;BMP_pressure;BME280_temperature;BME280_humidity;BME280_pressure;Samples;Min_cycle;Max_cycle;Signal;HPM_P1;HPM_P2
2021/01/26 00:00:46;;;;;;;6.80;3.77;;;4.70;99.90;;;;;;5089578;28;20225;-78
2021/01/26 00:03:12;;;;;;;6.50;4.80;;;4.60;99.90;;;;;;5090302;28;20221;-78
2021/01/26 00:05:39;;;;;;;8.53;5.60;;;4.70;99.90;;;;;;5090028;28;20558;-78
2021/01/26 00:08:06;;;;;;;11.47;7.93;;;4.60;99.90;;;;;;5090504;28;20208;-78
2021/01/26 00:10:32;;;;;;;6.83;4.87;;;4.50;99.90;;;;;;5089998;28;20205;-76
2021/01/26 00:13:00;;;;;;;4.57;2.93;;;4.30;99.90;;;;;;5090204;28;20198;-77
2021/01/26 00:15:26;;;;;;;4.80;2.10;;;4.10;99.90;;;;;;5090719;28;20205;-77
2021/01/26 00:17:53;;;;;;;5.87;3.97;;;3.80;99.90;;;;;;5089463;28;20202;-77
2021/01/26 00:20:19;;;;;;;2.80;2.60;;;3.80;99.90;;;;;;5090295;28;20237;-77
2021/01/26 00:22:46;;;;;;;5.20;2.70;;;3.70;99.90;;;;;;5089746;28;20210;-77
2021/01/26 00:25:18;;;;;;;4.70;2.63;;;3.70;99.90;;;;;;5090139;28;20205;-77
2021/01/26 00:27:45;;;;;;;4.40;2.43;;;3.70;99.90;;;;;;5092401;28;20673;-77
2021/01/26 00:30:17;;;;;;;11.10;2.80;;;3.60;99.90;;;;;;5093671;28;20263;-77
2021/01/26 00:32:43;;;;;;;3.17;2.33;;;3.60;99.90;;;;;;5078678;28;20202;-77
2021/01/26 00:35:11;;;;;;;7.27;2.20;;;3.60;99.90;;;;;;5093849;28;20202;-76
2021/01/26 00:37:38;;;;;;;2.87;1.70;;;3.70;99.90;;;;;;5093271;28;20205;-75
2021/01/26 00:40:06;;;;;;;8.53;2.70;;;3.70;99.90;;;;;;5093154;28;20225;-75
2021/01/26 00:42:32;;;;;;;8.53;3.07;;;3.60;99.90;;;;;;5092903;28;20629;-73
2021/01/26 00:44:59;;;;;;;5.17;2.40;;;3.60;99.90;;;;;;5093068;28;20259;-73
2021/01/26 00:47:26;;;;;;;6.77;1.97;;;3.60;99.90;;;;;;5093377;28;20715;-73
2021/01/26 00:49:52;;;;;;;5.23;2.87;;;3.60;99.90;;;;;;5093220;28;20250;-73
2021/01/26 00:52:19;;;;;;;3.73;2.50;;;3.60;99.90;;;;;;5093363;28;20704;-74
2021/01/26 00:54:46;;;;;;;3.90;2.20;;;3.70;99.90;;;;;;5092495;28;20726;-74
2021/01/26 00:57:12;;;;;;;4.87;2.13;;;3.60;99.90;;;;;;5092878;28;20680;-74
2021/01/26 00:59:38;;;;;;;5.63;2.60;;;3.60;99.90;;;;;;5092887;28;20226;-74
2021/01/26 01:02:05;;;;;;;2.83;1.83;;;3.60;99.90;;;;;;5092857;28;20201;-74
2021/01/26 01:04:32;;;;;;;4.70;2.10;;;3.50;99.90;;;;;;5092683;28;20648;-75
2021/01/26 01:06:59;;;;;;;4.80;2.37;;;3.50;99.90;;;;;;5092937;28;20213;-74
2021/01/26 01:09:25;;;;;;;5.53;3.60;;;3.30;99.90;;;;;;5093109;28;20582;-74
2021/01/26 01:11:51;;;;;;;9.87;5.37;;;3.30;99.90;;;;;;5092443;28;20213;-75
2021/01/26 01:14:18;;;;;;;12.87;5.23;;;3.20;99.90;;;;;;5092537;28;20205;-73
2021/01/26 01:16:45;;;;;;;9.33;4.63;;;3.10;99.90;;;;;;5092476;28;20206;-74
2021/01/26 01:19:12;;;;;;;7.53;3.00;;;3.00;99.90;;;;;;5092366;28;20223;-74
2021/01/26 01:21:39;;;;;;;5.73;3.10;;;2.90;99.90;;;;;;5092419;28;20217;-74
2021/01/26 01:24:06;;;;;;;6.60;3.10;;;2.90;99.90;;;;;;5092476;28;20632;-74
2021/01/26 01:26:34;;;;;;;6.80;2.80;;;3.00;99.90;;;;;;5092156;28;20212;-74
2021/01/26 01:29:00;;;;;;;7.50;2.80;;;3.10;99.90;;;;;;5092593;28;20210;-73
2021/01/26 01:31:26;;;;;;;4.13;2.67;;;3.20;99.90;;;;;;5092111;28;20205;-73
2021/01/26 01:33:53;;;;;;;4.77;3.13;;;3.10;99.90;;;;;;5092299;28;20324;-75
2021/01/26 01:36:19;;;;;;;4.07;2.27;;;3.10;99.90;;;;;;5092016;28;20205;-73
2021/01/26 01:38:47;;;;;;;3.83;2.37;;;3.00;99.90;;;;;;5092244;28;20595;-73
2021/01/26 01:41:13;;;;;;;8.53;3.27;;;3.00;99.90;;;;;;5092031;28;20237;-73
2021/01/26 01:43:40;;;;;;;6.67;2.83;;;3.30;99.90;;;;;;5091910;28;20201;-73
2021/01/26 01:46:13;;;;;;;7.57;3.40;;;3.10;99.90;;;;;;5092247;28;20213;-74
2021/01/26 01:48:42;;;;;;;8.77;4.07;;;3.00;99.90;;;;;;5063766;28;20209;-74
2021/01/26 01:51:12;;;;;;;6.73;4.03;;;2.90;99.90;;;;;;5092108;28;20209;-75
2021/01/26 01:53:41;;;;;;;4.13;3.67;;;2.80;99.90;;;;;;5091556;28;20202;-73
2021/01/26 01:56:13;;;;;;;7.17;3.13;;;2.80;99.90;;;;;;5092276;28;20209;-75
2021/01/26 01:58:43;;;;;;;7.53;3.73;;;2.90;99.90;;;;;;5091391;28;20205;-75
2021/01/26 02:01:13;;;;;;;7.03;3.27;;;2.80;99.90;;;;;;5091844;28;20229;-75
2021/01/26 02:03:42;;;;;;;3.93;2.77;;;2.70;99.90;;;;;;5089548;28;20213;-75
2021/01/26 02:06:11;;;;;;;7.03;2.40;;;2.70;99.90;;;;;;5071266;28;20209;-74
2021/01/26 02:08:44;;;;;;;5.47;2.63;;;2.90;99.90;;;;;;5083816;28;20208;-74
2021/01/26 02:11:11;;;;;;;4.17;2.83;;;3.00;99.90;;;;;;5083409;28;20673;-75
2021/01/26 02:13:38;;;;;;;12.57;2.60;;;3.10;99.90;;;;;;5091258;28;20262;-75
2021/01/26 02:16:06;;;;;;;4.73;2.17;;;3.00;99.90;;;;;;5091198;28;20620;-74
2021/01/26 02:18:51;;;;;;;6.17;2.57;;;3.20;99.90;;;;;;5091396;28;20224;-74
2021/01/26 02:21:51;;;;;;;4.87;2.27;;;3.20;99.90;;;;;;5091484;28;20221;-74
2021/01/26 02:24:55;;;;;;;7.63;3.97;;;3.10;99.90;;;;;;5082086;28;20205;-74
2021/01/26 02:28:09;;;;;;;4.33;2.30;;;3.00;99.90;;;;;;5090433;28;20580;-75
2021/01/26 02:30:48;;;;;;;7.10;2.70;;;2.90;99.90;;;;;;5031252;28;20273;-74
2021/01/26 02:33:54;;;;;;;5.13;2.30;;;2.90;99.90;;;;;;5047626;28;20234;-75
2021/01/26 02:36:59;;;;;;;6.00;3.03;;;2.90;99.90;;;;;;5083795;28;20209;-74
2021/01/26 02:39:39;;;;;;;4.83;2.67;;;2.80;99.90;;;;;;5079282;28;20204;-74
2021/01/26 02:42:25;;;;;;;4.87;2.67;;;2.70;99.90;;;;;;5090880;28;20617;-74
2021/01/26 02:45:03;;;;;;;6.47;2.37;;;2.60;99.90;;;;;;5088509;28;20220;-74
2021/01/26 02:47:43;;;;;;;7.70;2.10;;;2.50;99.90;;;;;;5081026;28;20203;-74
2021/01/26 02:50:19;;;;;;;9.70;4.07;;;2.40;99.90;;;;;;5090361;28;20213;-74
2021/01/26 02:52:58;;;;;;;9.63;3.23;;;2.40;99.90;;;;;;5080343;28;20204;-74
2021/01/26 02:55:32;;;;;;;8.63;2.83;;;2.20;99.90;;;;;;5071176;28;20209;-74
2021/01/26 02:58:05;;;;;;;4.63;3.40;;;2.20;99.90;;;;;;5070562;28;20259;-74
2021/01/26 03:00:35;;;;;;;5.03;2.67;;;2.30;99.90;;;;;;5070266;28;20221;-74
2021/01/26 03:03:06;;;;;;;4.53;3.20;;;2.30;99.90;;;;;;5070334;28;20666;-74
2021/01/26 03:05:39;;;;;;;6.93;3.47;;;2.30;99.90;;;;;;5070230;28;20220;-74
2021/01/26 03:08:11;;;;;;;5.27;3.20;;;2.20;99.90;;;;;;5070265;28;20202;-73
2021/01/26 03:10:42;;;;;;;7.57;2.93;;;2.20;99.90;;;;;;5070329;28;20229;-73
2021/01/26 03:13:11;;;;;;;12.23;4.40;;;2.20;99.90;;;;;;5070367;28;20225;-73
2021/01/26 03:15:41;;;;;;;8.80;3.60;;;2.10;99.90;;;;;;5070265;28;20213;-74
2021/01/26 03:18:13;;;;;;;6.27;2.97;;;2.20;99.90;;;;;;5070425;28;20213;-74
2021/01/26 03:20:43;;;;;;;5.63;2.90;;;2.20;99.90;;;;;;5069831;28;20248;-74
2021/01/26 03:23:14;;;;;;;7.00;2.73;;;2.20;99.90;;;;;;5070523;28;20202;-74
2021/01/26 03:25:46;;;;;;;3.33;2.00;;;2.10;99.90;;;;;;5069751;28;20198;-73
2021/01/26 03:28:15;;;;;;;7.07;2.40;;;2.10;99.90;;;;;;5070285;28;20210;-73
2021/01/26 03:30:45;;;;;;;3.97;2.77;;;2.10;99.90;;;;;;5069871;28;20582;-75
2021/01/26 03:33:16;;;;;;;5.10;2.70;;;2.10;99.90;;;;;;5070187;28;20213;-74
2021/01/26 03:35:43;;;;;;;4.90;2.47;;;2.20;99.90;;;;;;5070119;28;20205;-73
2021/01/26 03:38:15;;;;;;;3.67;2.47;;;2.10;99.90;;;;;;5070612;28;20209;-75
2021/01/26 03:40:43;;;;;;;4.87;2.43;;;2.20;99.90;;;;;;5069676;28;20583;-75
2021/01/26 03:43:10;;;;;;;5.47;2.67;;;2.10;99.90;;;;;;5070148;28;20267;-75
2021/01/26 03:45:36;;;;;;;5.03;3.03;;;2.10;99.90;;;;;;5069751;28;20202;-75
2021/01/26 03:48:18;;;;;;;3.77;2.03;;;2.10;99.90;;;;;;5070467;28;20198;-75
2021/01/26 03:50:52;;;;;;;6.43;2.93;;;1.90;99.90;;;;;;5069871;28;20205;-74
2021/01/26 03:53:41;;;;;;;7.37;3.70;;;1.80;99.90;;;;;;5070342;28;20225;-75
2021/01/26 03:56:18;;;;;;;7.97;3.20;;;1.80;99.90;;;;;;5056348;28;20201;-75
2021/01/26 03:58:50;;;;;;;5.03;2.70;;;1.70;99.90;;;;;;5069503;28;20587;-73
2021/01/26 04:01:23;;;;;;;6.70;3.87;;;1.70;99.90;;;;;;5070828;28;20222;-74
2021/01/26 04:03:59;;;;;;;3.53;2.50;;;1.70;99.90;;;;;;5073971;28;20254;-73
2021/01/26 04:06:32;;;;;;;5.27;3.00;;;1.60;99.90;;;;;;5074154;28;20217;-76
2021/01/26 04:09:04;;;;;;;10.00;2.80;;;1.60;99.90;;;;;;5073917;28;20206;-76
2021/01/26 04:11:40;;;;;;;7.07;3.83;;;1.70;99.90;;;;;;5073337;28;20202;-75
2021/01/26 04:14:12;;;;;;;5.40;3.00;;;1.60;99.90;;;;;;5073989;28;20210;-75
2021/01/26 04:16:51;;;;;;;4.67;3.37;;;1.60;99.90;;;;;;5073385;28;20580;-76
2021/01/26 04:19:22;;;;;;;6.93;3.30;;;1.50;99.90;;;;;;5073376;28;20291;-75
2021/01/26 04:21:49;;;;;;;5.93;4.40;;;1.60;99.90;;;;;;5073085;28;20234;-75
2021/01/26 04:24:16;;;;;;;7.73;3.87;;;1.60;99.90;;;;;;5073568;28;20210;-75
2021/01/26 04:26:46;;;;;;;4.57;3.37;;;1.50;99.90;;;;;;5073081;28;20222;-76
2021/01/26 04:29:12;;;;;;;6.53;4.13;;;1.50;99.90;;;;;;5073828;28;20210;-75
2021/01/26 04:31:39;;;;;;;7.37;3.33;;;1.40;99.90;;;;;;5072733;28;20210;-76
2021/01/26 04:34:05;;;;;;;6.00;4.00;;;1.30;99.90;;;;;;5073304;28;20202;-76
2021/01/26 04:36:31;;;;;;;7.60;4.17;;;1.40;99.90;;;;;;5072869;28;20708;-73
2021/01/26 04:38:58;;;;;;;7.07;3.53;;;1.40;99.90;;;;;;5073213;28;20214;-73
2021/01/26 04:41:33;;;;;;;7.37;4.10;;;1.50;99.90;;;;;;5073344;28;20234;-76
2021/01/26 04:44:24;;;;;;;4.27;3.17;;;1.50;99.90;;;;;;5073050;28;20206;-76
2021/01/26 04:47:01;;;;;;;6.13;3.97;;;1.50;99.90;;;;;;5072592;28;20270;-78
2021/01/26 04:49:33;;;;;;;5.43;3.63;;;1.40;99.90;;;;;;5072988;28;20206;-76
2021/01/26 04:52:08;;;;;;;4.93;3.30;;;1.40;99.90;;;;;;5073070;28;20212;-77
2021/01/26 04:54:48;;;;;;;8.77;4.70;;;1.40;99.90;;;;;;5072712;28;20213;-78
2021/01/26 04:57:29;;;;;;;6.97;4.13;;;1.30;99.90;;;;;;5073049;28;20320;-78
2021/01/26 05:00:08;;;;;;;5.97;3.60;;;1.20;99.90;;;;;;5073533;28;20217;-78
2021/01/26 05:03:00;;;;;;;5.60;3.20;;;1.20;99.90;;;;;;5069073;28;20214;-78
2021/01/26 05:05:29;;;;;;;8.43;3.67;;;1.20;99.90;;;;;;5066020;28;20202;-78
2021/01/26 05:07:59;;;;;;;6.80;4.47;;;1.20;99.90;;;;;;5072691;28;20194;-78
2021/01/26 05:10:31;;;;;;;9.43;3.80;;;1.10;99.90;;;;;;5073286;28;20206;-78
2021/01/26 05:13:02;;;;;;;9.63;5.00;;;1.20;99.90;;;;;;5072297;28;20205;-76
2021/01/26 05:15:33;;;;;;;9.23;4.17;;;1.10;99.90;;;;;;5072507;28;20629;-76
2021/01/26 05:18:06;;;;;;;5.50;3.60;;;1.10;99.90;;;;;;5072369;28;20634;-77
2021/01/26 05:20:38;;;;;;;6.10;4.40;;;1.00;99.90;;;;;;5072160;28;20292;-77
2021/01/26 05:23:10;;;;;;;5.50;4.07;;;1.10;99.90;;;;;;5072068;28;20670;-76
2021/01/26 05:25:37;;;;;;;9.03;5.17;;;1.10;99.90;;;;;;5072124;28;20210;-77
2021/01/26 05:28:03;;;;;;;6.43;3.83;;;1.10;99.90;;;;;;5072080;28;20213;-77
2021/01/26 05:30:33;;;;;;;8.00;4.73;;;1.10;99.90;;;;;;5072020;28;20546;-77
2021/01/26 05:33:03;;;;;;;5.00;3.80;;;1.10;99.90;;;;;;5072323;28;20249;-76
2021/01/26 05:35:30;;;;;;;6.10;4.13;;;1.10;99.90;;;;;;5072109;28;20218;-77
2021/01/26 05:37:57;;;;;;;5.77;4.17;;;1.20;99.90;;;;;;5072110;28;20674;-77
2021/01/26 05:40:26;;;;;;;5.53;3.67;;;1.10;99.90;;;;;;5058443;28;20230;-77
2021/01/26 05:42:56;;;;;;;9.60;5.70;;;1.10;99.90;;;;;;5071921;28;20633;-77
2021/01/26 05:45:26;;;;;;;11.13;5.07;;;1.10;99.90;;;;;;5072282;28;20214;-77
2021/01/26 05:48:02;;;;;;;12.13;6.00;;;1.00;99.90;;;;;;5072162;28;20689;-78
2021/01/26 05:50:30;;;;;;;9.73;5.23;;;0.90;99.90;;;;;;5071269;28;20244;-76
2021/01/26 05:53:03;;;;;;;7.67;4.50;;;0.90;99.90;;;;;;5072142;28;20213;-76
2021/01/26 05:55:32;;;;;;;7.77;5.83;;;0.80;99.90;;;;;;5071399;28;20207;-77
2021/01/26 05:58:08;;;;;;;8.73;7.23;;;0.80;99.90;;;;;;5072051;28;20241;-77
2021/01/26 06:00:35;;;;;;;9.53;7.83;;;0.80;99.90;;;;;;5070608;28;20210;-77
2021/01/26 06:03:09;;;;;;;14.90;8.87;;;0.80;99.90;;;;;;5071488;28;20714;-76
2021/01/26 06:05:36;;;;;;;11.07;8.77;;;0.80;99.90;;;;;;5070679;28;20239;-76
2021/01/26 06:08:06;;;;;;;10.47;8.07;;;0.80;99.90;;;;;;5071713;28;20203;-76
2021/01/26 06:10:34;;;;;;;12.83;6.67;;;0.80;99.90;;;;;;5071256;28;20264;-76
2021/01/26 06:13:03;;;;;;;11.73;8.37;;;0.80;99.90;;;;;;5071401;28;20202;-76
2021/01/26 06:15:32;;;;;;;8.90;8.00;;;0.80;99.90;;;;;;5071109;28;20202;-76
2021/01/26 06:18:17;;;;;;;13.53;8.03;;;0.90;99.90;;;;;;5073992;28;20727;-76
2021/01/26 06:20:45;;;;;;;10.67;6.70;;;1.00;99.90;;;;;;5063729;28;20225;-76
2021/01/26 06:23:19;;;;;;;19.27;8.90;;;1.00;99.90;;;;;;5082445;28;20232;-76
2021/01/26 06:25:50;;;;;;;9.20;6.47;;;0.90;99.90;;;;;;5086573;28;20247;-76
2021/01/26 06:28:41;;;;;;;9.37;7.60;;;1.00;99.90;;;;;;5085125;28;20217;-76
2021/01/26 06:31:17;;;;;;;15.43;7.90;;;0.90;99.90;;;;;;5073416;28;20209;-78
2021/01/26 06:34:21;;;;;;;16.43;9.87;;;0.90;99.90;;;;;;5066058;28;20199;-78
2021/01/26 06:37:10;;;;;;;45.37;27.40;;;0.90;99.90;;;;;;5087615;28;20600;-79
2021/01/26 06:40:06;;;;;;;31.60;20.73;;;0.90;99.90;;;;;;5086202;28;20213;-78
2021/01/26 06:42:44;;;;;;;25.90;17.03;;;0.90;99.90;;;;;;5072125;28;20220;-79
2021/01/26 06:45:18;;;;;;;30.40;17.47;;;0.80;99.90;;;;;;5087865;28;20237;-77
2021/01/26 06:48:21;;;;;;;25.67;16.57;;;0.90;99.90;;;;;;5089267;28;20201;-79
2021/01/26 06:51:23;;;;;;;20.47;13.73;;;0.90;99.90;;;;;;5067198;28;20209;-77
2021/01/26 06:53:59;;;;;;;23.47;13.77;;;0.90;99.90;;;;;;5083890;28;20205;-78
2021/01/26 06:56:50;;;;;;;19.33;13.37;;;0.90;99.90;;;;;;5089286;28;20677;-79
2021/01/26 06:59:33;;;;;;;25.20;14.07;;;0.90;99.90;;;;;;5067458;28;20213;-80
2021/01/26 07:02:22;;;;;;;19.60;14.37;;;1.00;99.90;;;;;;5077164;28;20230;-77
2021/01/26 07:05:30;;;;;;;23.93;14.50;;;0.80;99.90;;;;;;5057354;28;20233;-78
2021/01/26 07:08:27;;;;;;;21.43;14.27;;;0.80;99.90;;;;;;5037614;28;20265;-77
2021/01/26 07:11:18;;;;;;;34.13;17.63;;;0.80;99.90;;;;;;5070505;28;20388;-78
2021/01/26 07:13:53;;;;;;;32.40;18.50;;;0.90;99.90;;;;;;5070215;28;20206;-79
2021/01/26 07:16:46;;;;;;;33.97;20.97;;;0.90;99.90;;;;;;5070566;28;20198;-76
2021/01/26 07:19:35;;;;;;;28.07;17.30;;;0.90;99.90;;;;;;5068466;28;20660;-75
2021/01/26 07:22:40;;;;;;;29.20;17.50;;;0.90;99.90;;;;;;5059311;28;20227;-77
2021/01/26 07:25:20;;;;;;;21.07;14.60;;;0.90;99.90;;;;;;5070514;28;20214;-78
2021/01/26 07:28:21;;;;;;;29.53;16.20;;;0.80;99.90;;;;;;5064765;28;20601;-78
2021/01/26 07:30:52;;;;;;;27.43;14.77;;;0.80;99.90;;;;;;5072055;28;21113;-78
2021/01/26 07:33:30;;;;;;;27.10;16.17;;;0.90;99.90;;;;;;5076916;28;20707;-78
2021/01/26 07:36:05;;;;;;;33.97;19.30;;;1.00;99.90;;;;;;5056116;28;20203;-77
2021/01/26 07:38:39;;;;;;;39.30;18.57;;;1.10;99.90;;;;;;5074643;28;20209;-78
2021/01/26 07:41:11;;;;;;;52.50;20.90;;;1.10;99.90;;;;;;5076093;28;20214;-77
2021/01/26 07:43:44;;;;;;;27.83;18.67;;;1.10;99.90;;;;;;5073605;28;20206;-78
2021/01/26 07:46:18;;;;;;;25.00;15.63;;;1.10;99.90;;;;;;5077872;28;20605;-78
2021/01/26 07:48:53;;;;;;;22.10;13.77;;;1.70;99.90;;;;;;5069973;28;20193;-78
2021/01/26 07:51:22;;;;;;;24.90;12.63;;;2.60;99.90;;;;;;5065855;28;20206;-78
2021/01/26 07:53:57;;;;;;;16.50;11.00;;;2.50;99.90;;;;;;5071195;28;20217;-77
2021/01/26 07:56:32;;;;;;;13.33;9.07;;;3.20;99.90;;;;;;5063164;28;20199;-77
2021/01/26 07:59:03;;;;;;;15.70;8.50;;;2.60;99.90;;;;;;5059715;28;20204;-77
2021/01/26 08:01:36;;;;;;;12.87;9.33;;;2.10;99.90;;;;;;5059269;28;20650;-77
2021/01/26 08:04:04;;;;;;;11.60;8.00;;;1.90;99.90;;;;;;5079598;28;20202;-77
2021/01/26 08:06:50;;;;;;;11.87;6.97;;;2.40;99.90;;;;;;5087514;28;20207;-78
2021/01/26 08:09:22;;;;;;;12.70;8.77;;;2.50;99.90;;;;;;5078915;28;20213;-79
2021/01/26 08:11:57;;;;;;;19.57;9.80;;;2.10;99.90;;;;;;5084569;28;20719;-79
2021/01/26 08:14:32;;;;;;;15.30;9.13;;;1.80;99.90;;;;;;5082731;28;20208;-79
2021/01/26 08:17:00;;;;;;;18.13;10.67;;;1.70;99.90;;;;;;5085499;28;20240;-77
2021/01/26 08:19:31;;;;;;;18.17;10.27;;;1.70;99.90;;;;;;5082894;28;20221;-78
2021/01/26 08:21:58;;;;;;;16.33;10.30;;;1.70;99.90;;;;;;5078585;28;20226;-79
2021/01/26 08:24:36;;;;;;;18.73;11.07;;;1.70;99.90;;;;;;5081923;28;20216;-79
2021/01/26 08:27:30;;;;;;;15.57;8.53;;;1.70;99.90;;;;;;5086662;28;20201;-79
2021/01/26 08:29:58;;;;;;;18.40;9.10;;;1.50;99.90;;;;;;5085055;28;20280;-79
2021/01/26 08:32:57;;;;;;;14.90;9.40;;;1.60;99.90;;;;;;5073595;28;20296;-79
2021/01/26 08:35:39;;;;;;;12.03;8.70;;;1.60;99.90;;;;;;5062899;28;20213;-79
2021/01/26 08:38:06;;;;;;;12.50;8.37;;;1.90;99.90;;;;;;5070173;28;20232;-80
2021/01/26 08:41:00;;;;;;;13.30;8.07;;;2.00;99.90;;;;;;5081651;28;20232;-79
2021/01/26 08:43:44;;;;;;;12.70;7.70;;;2.70;99.90;;;;;;5080651;28;20213;-80
2021/01/26 08:46:28;;;;;;;16.60;8.13;;;2.60;99.90;;;;;;5059761;28;20256;-80
2021/01/26 08:48:58;;;;;;;17.37;8.00;;;2.70;99.90;;;;;;5071537;28;20580;-80
2021/01/26 08:51:27;;;;;;;11.70;8.07;;;2.80;99.90;;;;;;5081176;28;20205;-80
2021/01/26 08:53:54;;;;;;;8.93;8.03;;;3.20;99.90;;;;;;5076091;28;20247;-80
2021/01/26 08:56:38;;;;;;;12.97;8.23;;;3.40;99.90;;;;;;5069372;28;20676;-80
2021/01/26 08:59:10;;;;;;;13.37;8.40;;;3.80;99.90;;;;;;5066319;28;20558;-77
2021/01/26 09:01:42;;;;;;;10.23;7.10;;;5.50;99.90;;;;;;5068339;28;20244;-77
2021/01/26 09:04:42;;;;;;;12.17;8.40;;;7.30;99.90;;;;;;5072401;28;20232;-79
2021/01/26 09:07:10;;;;;;;10.57;7.10;;;8.30;99.90;;;;;;5065644;28;20213;-76
2021/01/26 09:09:51;;;;;;;11.00;7.57;;;8.10;99.90;;;;;;5066913;28;20276;-79
2021/01/26 09:12:26;;;;;;;10.40;6.73;;;6.70;99.90;;;;;;5083667;28;20209;-79
2021/01/26 09:15:02;;;;;;;11.27;6.87;;;5.40;99.90;;;;;;5065046;28;20232;-79
2021/01/26 09:17:31;;;;;;;11.40;7.40;;;6.00;99.90;;;;;;5071435;28;20195;-78
2021/01/26 09:20:06;;;;;;;8.93;6.37;;;8.10;99.90;;;;;;5084838;28;20220;-79
2021/01/26 09:22:34;;;;;;;17.03;7.87;;;9.60;99.90;;;;;;5058693;28;20329;-80
2021/01/26 09:25:05;;;;;;;10.40;7.60;;;10.90;99.90;;;;;;5074213;28;20264;-79
2021/01/26 09:27:33;;;;;;;10.83;6.93;;;11.10;99.90;;;;;;5071673;28;20214;-79
2021/01/26 09:30:08;;;;;;;11.57;6.40;;;11.90;99.90;;;;;;5075134;28;20259;-81
2021/01/26 09:32:35;;;;;;;13.27;5.10;;;10.30;99.90;;;;;;5073773;28;20560;-81
2021/01/26 09:35:12;;;;;;;10.60;6.70;;;9.30;99.90;;;;;;5074985;28;20212;-81
2021/01/26 09:37:38;;;;;;;7.53;6.13;;;10.40;99.90;;;;;;5068537;28;20344;-81
2021/01/26 09:40:10;;;;;;;11.40;6.47;;;11.50;99.90;;;;;;5068518;28;20202;-81
2021/01/26 09:42:37;;;;;;;9.40;5.57;;;9.80;99.90;;;;;;5087808;28;20212;-80
2021/01/26 09:45:10;;;;;;;7.97;5.27;;;10.50;99.90;;;;;;5084654;28;20252;-81
2021/01/26 09:47:37;;;;;;;8.77;5.10;;;10.90;99.90;;;;;;5087747;28;20297;-82
2021/01/26 09:50:11;;;;;;;11.10;5.20;;;11.60;99.90;;;;;;5084116;28;20217;-81
2021/01/26 09:52:38;;;;;;;7.00;4.47;;;9.70;99.90;;;;;;5087928;28;20223;-81
2021/01/26 09:55:09;;;;;;;10.93;4.00;;;10.30;99.90;;;;;;5082868;28;20210;-81
2021/01/26 09:57:36;;;;;;;10.83;4.47;;;10.00;99.90;;;;;;5078799;28;20632;-81
2021/01/26 10:00:07;;;;;;;5.43;4.63;;;7.90;99.90;;;;;;5079492;28;20692;-81
2021/01/26 10:02:35;;;;;;;7.17;4.70;;;7.10;99.90;;;;;;5063791;28;20268;-81
2021/01/26 10:05:01;;;;;;;7.17;5.43;;;6.90;99.90;;;;;;5064242;28;20202;-81
2021/01/26 10:07:28;;;;;;;9.87;5.27;;;6.30;99.90;;;;;;5072431;28;20217;-81
2021/01/26 10:10:12;;;;;;;10.43;6.03;;;6.10;99.90;;;;;;5072073;28;20198;-81
2021/01/26 10:12:44;;;;;;;7.67;5.20;;;6.00;99.90;;;;;;5070931;28;20206;-79
2021/01/26 10:15:15;;;;;;;8.23;4.93;;;6.00;99.90;;;;;;5064490;28;20679;-79
2021/01/26 10:17:48;;;;;;;5.37;3.90;;;5.50;99.90;;;;;;5079700;28;20195;-78
2021/01/26 10:20:23;;;;;;;8.77;4.70;;;5.40;99.90;;;;;;5058814;28;20230;-79
2021/01/26 10:22:50;;;;;;;6.73;5.17;;;5.30;99.90;;;;;;5069962;28;20206;-79
2021/01/26 10:25:18;;;;;;;8.00;5.00;;;5.30;99.90;;;;;;5071013;28;20210;-79
2021/01/26 10:27:47;;;;;;;6.97;5.80;;;5.30;99.90;;;;;;5082660;28;20201;-78
2021/01/26 10:30:17;;;;;;;8.67;4.90;;;5.40;99.90;;;;;;5055960;28;20682;-78
2021/01/26 10:32:47;;;;;;;5.83;4.80;;;5.60;99.90;;;;;;5059589;28;20238;-79
2021/01/26 10:35:31;;;;;;;5.73;5.07;;;5.60;99.90;;;;;;5070838;28;20210;-79
2021/01/26 10:37:58;;;;;;;6.07;3.80;;;5.30;99.90;;;;;;5072111;28;20237;-78
2021/01/26 10:40:34;;;;;;;5.30;3.77;;;5.40;99.90;;;;;;5069023;28;20579;-79
2021/01/26 10:43:10;;;;;;;7.87;3.90;;;5.30;99.90;;;;;;5071849;28;20211;-78
2021/01/26 10:45:41;;;;;;;9.13;4.47;;;5.40;99.90;;;;;;5062160;28;20213;-79
2021/01/26 10:48:14;;;;;;;5.60;3.90;;;5.30;99.90;;;;;;5060092;28;20245;-79
2021/01/26 10:50:41;;;;;;;5.07;3.43;;;5.20;99.90;;;;;;5069691;28;20665;-79
2021/01/26 10:53:07;;;;;;;6.43;4.70;;;5.20;99.90;;;;;;5073554;28;20279;-79
2021/01/26 10:55:34;;;;;;;6.47;4.33;;;5.70;99.90;;;;;;5077276;28;20283;-79
2021/01/26 10:58:00;;;;;;;8.07;4.87;;;5.80;99.90;;;;;;5074851;28;20675;-78
2021/01/26 11:00:27;;;;;;;6.03;4.67;;;6.60;99.90;;;;;;5078062;28;20199;-79
2021/01/26 11:02:55;;;;;;;7.97;5.77;;;6.20;99.90;;;;;;5076480;28;20210;-79
2021/01/26 11:05:23;;;;;;;8.73;4.33;;;6.20;99.90;;;;;;5087505;28;20225;-79
2021/01/26 11:07:50;;;;;;;6.17;4.33;;;6.00;99.90;;;;;;5082625;28;20206;-78
2021/01/26 11:10:17;;;;;;;4.53;3.63;;;6.30;99.90;;;;;;5080268;28;20550;-77
2021/01/26 11:12:44;;;;;;;4.83;3.37;;;6.40;99.90;;;;;;5083718;28;20214;-78
2021/01/26 11:15:13;;;;;;;4.97;3.20;;;6.10;99.90;;;;;;5063714;28;20209;-78
2021/01/26 11:17:39;;;;;;;4.40;3.40;;;6.20;99.90;;;;;;5068118;28;20206;-78
2021/01/26 11:20:12;;;;;;;4.80;2.80;;;6.20;99.90;;;;;;5063806;28;20210;-77
2021/01/26 11:22:39;;;;;;;4.83;3.57;;;6.40;99.90;;;;;;5080558;28;20210;-78
2021/01/26 11:25:07;;;;;;;3.93;2.87;;;6.40;99.90;;;;;;5076267;28;20206;-78
2021/01/26 11:27:35;;;;;;;3.00;2.40;;;6.80;99.90;;;;;;5088588;28;20205;-77
2021/01/26 11:30:01;;;;;;;5.83;3.43;;;6.60;99.90;;;;;;5087175;28;20202;-77
2021/01/26 11:32:28;;;;;;;4.77;3.20;;;6.60;99.90;;;;;;5088066;28;20579;-78
2021/01/26 11:34:54;;;;;;;5.67;3.30;;;6.30;99.90;;;;;;5085059;28;20246;-78
2021/01/26 11:37:22;;;;;;;5.43;3.40;;;6.60;99.90;;;;;;5084096;28;20577;-78
2021/01/26 11:39:48;;;;;;;4.40;3.10;;;6.70;99.90;;;;;;5082629;28;20297;-78
2021/01/26 11:42:15;;;;;;;3.40;2.73;;;7.10;99.90;;;;;;5078876;28;20234;-79
2021/01/26 11:44:42;;;;;;;4.93;3.33;;;6.90;99.90;;;;;;5079160;28;20221;-78
2021/01/26 11:47:09;;;;;;;5.13;2.90;;;6.90;99.90;;;;;;5085387;28;20209;-78
2021/01/26 11:49:36;;;;;;;3.57;2.20;;;7.30;99.90;;;;;;5082040;28;20217;-78
2021/01/26 11:52:03;;;;;;;5.43;4.13;;;7.10;99.90;;;;;;5078586;28;20209;-77
2021/01/26 11:54:30;;;;;;;3.10;2.10;;;7.40;99.90;;;;;;5072168;28;20214;-77
2021/01/26 11:56:57;;;;;;;5.73;2.90;;;6.90;99.90;;;;;;5074585;28;20206;-78
2021/01/26 11:59:23;;;;;;;2.90;2.60;;;7.10;99.90;;;;;;5076762;28;20240;-78
2021/01/26 12:01:53;;;;;;;3.83;2.90;;;7.20;99.90;;;;;;5073673;28;20229;-78
2021/01/26 12:04:19;;;;;;;4.53;2.33;;;7.40;99.90;;;;;;5068879;28;20316;-77
2021/01/26 12:06:46;;;;;;;5.60;3.10;;;7.20;99.90;;;;;;5069154;28;20587;-78
2021/01/26 12:09:13;;;;;;;2.77;2.30;;;7.30;99.90;;;;;;5077217;28;20199;-78
2021/01/26 12:11:40;;;;;;;3.47;2.47;;;7.40;99.90;;;;;;5077875;28;20220;-78
2021/01/26 12:14:07;;;;;;;3.97;2.63;;;7.20;99.90;;;;;;5087095;28;20213;-78
2021/01/26 12:16:34;;;;;;;3.97;2.20;;;7.60;99.90;;;;;;5081166;28;20205;-79
2021/01/26 12:19:00;;;;;;;3.03;2.00;;;7.30;99.90;;;;;;5086141;28;20213;-76
2021/01/26 12:21:27;;;;;;;3.30;2.20;;;7.80;99.90;;;;;;5083409;28;20236;-79
2021/01/26 12:23:53;;;;;;;2.33;2.00;;;8.00;99.90;;;;;;5077018;28;20210;-78
2021/01/26 12:26:20;;;;;;;5.50;1.97;;;8.10;99.90;;;;;;5077337;28;20251;-78
2021/01/26 12:28:47;;;;;;;2.97;1.90;;;8.40;99.90;;;;;;5079422;28;20206;-78
2021/01/26 12:31:14;;;;;;;5.93;2.20;;;8.50;99.90;;;;;;5064464;28;20206;-77
2021/01/26 12:33:41;;;;;;;2.97;2.53;;;7.70;99.90;;;;;;5071978;28;20211;-79
2021/01/26 12:36:08;;;;;;;4.00;2.70;;;8.10;99.90;;;;;;5067726;28;20206;-77
2021/01/26 12:38:35;;;;;;;3.43;1.97;;;8.30;99.90;;;;;;5060061;28;20206;-79
2021/01/26 12:41:01;;;;;;;5.47;2.60;;;7.70;99.90;;;;;;5061371;28;20222;-78
2021/01/26 12:43:28;;;;;;;3.27;1.87;;;8.00;99.90;;;;;;5067835;28;20197;-78
2021/01/26 12:45:55;;;;;;;5.57;2.40;;;7.70;99.90;;;;;;5069080;28;20198;-78
2021/01/26 12:48:22;;;;;;;8.03;2.53;;;8.00;99.90;;;;;;5074203;28;20217;-78
2021/01/26 12:50:49;;;;;;;6.43;2.23;;;8.00;99.90;;;;;;5073652;28;20661;-78
2021/01/26 12:53:17;;;;;;;3.07;2.20;;;7.70;99.90;;;;;;5073536;28;20203;-79
2021/01/26 12:55:43;;;;;;;4.20;2.07;;;7.90;99.90;;;;;;5072494;28;20202;-78
2021/01/26 12:58:10;;;;;;;3.07;1.60;;;7.80;99.90;;;;;;5072787;28;20686;-78
2021/01/26 13:00:37;;;;;;;2.57;1.57;;;7.70;99.90;;;;;;5072621;28;20225;-80
2021/01/26 13:03:04;;;;;;;4.83;1.90;;;8.10;99.90;;;;;;5079714;28;20266;-78
2021/01/26 13:05:31;;;;;;;2.27;1.43;;;8.30;99.90;;;;;;5078462;28;20622;-78
2021/01/26 13:07:58;;;;;;;3.00;2.00;;;7.80;99.90;;;;;;5089462;28;20201;-77
2021/01/26 13:10:24;;;;;;;1.70;1.37;;;8.00;99.90;;;;;;5072962;28;20210;-77
2021/01/26 13:12:51;;;;;;;2.73;1.83;;;7.80;99.90;;;;;;5070041;28;20198;-77
2021/01/26 13:15:21;;;;;;;2.03;1.30;;;8.00;99.90;;;;;;5066477;28;20199;-79
2021/01/26 13:17:48;;;;;;;3.43;1.40;;;7.80;99.90;;;;;;5067212;28;20202;-78
2021/01/26 13:20:16;;;;;;;2.27;1.57;;;7.50;99.90;;;;;;5068866;28;20747;-78